createdAt,value
2017-09-19T00:01:25.698Z,0
2017-09-19T00:11:39.549Z,0
2017-09-19T00:21:54.519Z,0
2017-09-19T00:32:07.912Z,0
2017-09-19T00:42:22.146Z,0
2017-09-19T00:52:32.370Z,0
2017-09-19T01:02:45.553Z,0
2017-09-19T01:12:58.671Z,0
2017-09-19T01:23:12.550Z,0
2017-09-19T01:33:27.177Z,0
2017-09-19T01:43:40.405Z,0
2017-09-19T01:53:53.957Z,0
2017-09-19T02:04:08.281Z,0
2017-09-19T02:14:21.702Z,0
2017-09-19T02:24:35.112Z,0
2017-09-19T02:34:49.137Z,0
2017-09-19T02:45:02.276Z,0
2017-09-19T02:55:15.950Z,0
2017-09-19T03:05:30.236Z,0
2017-09-19T03:15:40.416Z,0
2017-09-19T03:25:54.482Z,0
2017-09-19T03:36:07.628Z,0
2017-09-19T03:46:22.046Z,0
2017-09-19T03:56:35.296Z,0
2017-09-19T04:06:49.490Z,0
2017-09-19T04:17:02.868Z,0
2017-09-19T04:27:16.081Z,0
2017-09-19T04:37:30.296Z,0
2017-09-19T04:47:45.224Z,0
2017-09-19T04:57:58.373Z,0
2017-09-19T05:08:12.094Z,0
2017-09-19T05:18:25.930Z,0
2017-09-19T05:28:36.159Z,0
2017-09-19T05:38:49.825Z,0
2017-09-19T05:49:04.022Z,0
2017-09-19T05:59:18.931Z,0
2017-09-19T06:09:32.507Z,0
2017-09-19T06:19:46.956Z,0
2017-09-19T06:30:00.317Z,0
2017-09-19T06:40:14.926Z,0
2017-09-19T06:50:29.781Z,0
2017-09-19T07:00:42.927Z,0
2017-09-19T07:10:56.721Z,0
2017-09-19T07:21:10.852Z,0
2017-09-19T07:31:24.905Z,0
2017-09-19T07:41:35.163Z,0.5
2017-09-19T07:51:48.313Z,2
2017-09-19T08:02:01.868Z,2.2
2017-09-19T08:12:15.500Z,4.3
2017-09-19T08:22:28.762Z,7.9
2017-09-19T08:32:43.077Z,14.9
2017-09-19T08:42:57.027Z,22.8
2017-09-19T08:53:11.482Z,27
2017-09-19T09:03:26.241Z,36
2017-09-19T09:13:40.526Z,47.5
2017-09-19T09:23:54.752Z,49
2017-09-19T09:34:09.913Z,57.1
2017-09-19T09:44:23.923Z,62.8
2017-09-19T09:54:34.263Z,75.5
2017-09-19T10:04:48.321Z,82.1
2017-09-19T10:15:03.056Z,74.1
2017-09-19T10:25:17.456Z,69.7
2017-09-19T10:35:31.671Z,67.6
2017-09-19T10:45:46.026Z,75.8
2017-09-19T10:56:00.776Z,82.6
2017-09-19T11:06:14.849Z,80.3
2017-09-19T11:16:29.270Z,88.7
2017-09-19T11:26:42.665Z,88.1
2017-09-19T11:36:55.943Z,84.7
2017-09-19T11:47:10.823Z,87.1
2017-09-19T11:57:24.161Z,85.2
2017-09-19T12:07:34.493Z,85.2
2017-09-19T12:17:47.936Z,86.2
2017-09-19T12:28:01.294Z,85.3
2017-09-19T12:38:16.174Z,81.3
2017-09-19T12:48:29.709Z,84
2017-09-19T12:58:44.852Z,88.7
2017-09-19T13:08:59.329Z,88.6
2017-09-19T13:19:14.179Z,86.7
2017-09-19T13:29:27.768Z,87.7
2017-09-19T13:39:41.427Z,83.2
2017-09-19T13:49:55.424Z,82.6
2017-09-19T14:00:09.256Z,81
2017-09-19T14:10:24.297Z,82.6
2017-09-19T14:20:34.614Z,86.5
2017-09-19T14:30:49.444Z,85.8
2017-09-19T14:41:04.182Z,86.1
2017-09-19T14:51:18.245Z,88.9
2017-09-19T15:01:33.410Z,88.6
2017-09-19T15:11:48.340Z,88.9
2017-09-19T15:22:01.857Z,88.4
2017-09-19T15:32:16.829Z,89.4
2017-09-19T15:42:31.250Z,85.5
2017-09-19T15:52:45.364Z,86.3
2017-09-19T16:02:59.017Z,83.7
2017-09-19T16:13:12.273Z,80.3
2017-09-19T16:33:39.875Z,75.6
2017-09-19T16:43:50.168Z,65.9
2017-09-19T16:54:03.362Z,52.7
2017-09-19T17:04:17.916Z,42.1
2017-09-19T17:14:32.503Z,29.1
2017-09-19T17:24:45.965Z,18.2
2017-09-19T17:34:59.714Z,10.7
2017-09-19T17:45:14.443Z,7.6
2017-09-19T17:55:27.779Z,3.8
2017-09-19T18:05:41.141Z,1
2017-09-19T18:15:55.393Z,0
2017-09-19T18:26:09.288Z,0
2017-09-19T18:36:22.792Z,0
2017-09-19T18:46:36.030Z,0
2017-09-19T18:56:46.254Z,0
2017-09-19T19:07:01.288Z,0
2017-09-19T19:17:15.087Z,0
2017-09-19T19:27:29.693Z,0.2
2017-09-19T19:37:44.552Z,1.4
2017-09-19T19:47:59.045Z,0.8
2017-09-19T19:58:12.699Z,0.1
2017-09-19T20:08:26.209Z,0
2017-09-19T20:18:40.992Z,0
2017-09-19T20:28:55.846Z,0
2017-09-19T20:39:10.566Z,0.3
2017-09-19T20:49:24.409Z,0.1
2017-09-19T20:59:38.678Z,0
2017-09-19T21:09:48.909Z,0
2017-09-19T21:20:03.137Z,0
2017-09-19T21:30:17.436Z,0
2017-09-19T21:40:30.915Z,0
2017-09-19T21:50:45.109Z,0
2017-09-19T22:01:00.079Z,0
2017-09-19T22:11:13.797Z,0
2017-09-19T22:21:27.206Z,0
2017-09-19T22:31:41.669Z,0
2017-09-19T22:41:54.992Z,0
2017-09-19T22:52:09.055Z,0
2017-09-19T23:02:23.735Z,0
2017-09-19T23:12:38.532Z,0
2017-09-19T23:22:52.791Z,0
2017-09-19T23:33:02.946Z,0
2017-09-19T23:43:17.399Z,0
2017-09-19T23:53:32.031Z,0
